sensor_id;sensor_type;location;lat;lon;timestamp;temperature;humidity
13433;DHT22;6789;47.678;9.158;2023-07-13T00:03:03;19.70;99.90
13433;DHT22;6789;47.678;9.158;2023-07-13T00:07:56;20.00;99.90
13433;DHT22;6789;47.678;9.158;2023-07-13T00:12:48;20.00;99.90
13433;DHT22;6789;47.678;9.158;2023-07-13T00:17:40;20.10;99.90
13433;DHT22;6789;47.678;9.158;2023-07-13T00:22:32;20.10;99.90
13433;DHT22;6789;47.678;9.158;2023-07-13T00:27:24;20.00;99.90
13433;DHT22;6789;47.678;9.158;2023-07-13T00:32:18;20.00;99.90
13433;DHT22;6789;47.678;9.158;2023-07-13T00:37:10;20.10;99.90
13433;DHT22;6789;47.678;9.158;2023-07-13T00:42:03;20.20;99.90
13433;DHT22;6789;47.678;9.158;2023-07-13T00:52:06;20.10;99.90
13433;DHT22;6789;47.678;9.158;2023-07-13T00:57:03;20.10;99.90
13433;DHT22;6789;47.678;9.158;2023-07-13T01:07:07;19.80;99.90
13433;DHT22;6789;47.678;9.158;2023-07-13T01:12:00;19.70;99.90
13433;DHT22;6789;47.678;9.158;2023-07-13T01:21:58;19.50;99.90
13433;DHT22;6789;47.678;9.158;2023-07-13T01:26:50;19.50;99.90
13433;DHT22;6789;47.678;9.158;2023-07-13T01:31:42;19.50;99.90
13433;DHT22;6789;47.678;9.158;2023-07-13T01:36:37;19.60;99.90
13433;DHT22;6789;47.678;9.158;2023-07-13T01:41:42;19.80;99.90
13433;DHT22;6789;47.678;9.158;2023-07-13T01:46:34;19.80;99.90
13433;DHT22;6789;47.678;9.158;2023-07-13T01:51:26;19.90;99.90
13433;DHT22;6789;47.678;9.158;2023-07-13T01:56:18;19.60;99.90
13433;DHT22;6789;47.678;9.158;2023-07-13T02:01:10;19.30;99.90
13433;DHT22;6789;47.678;9.158;2023-07-13T02:06:02;19.30;99.90
13433;DHT22;6789;47.678;9.158;2023-07-13T02:10:54;19.20;99.90
13433;DHT22;6789;47.678;9.158;2023-07-13T02:15:46;19.20;99.90
13433;DHT22;6789;47.678;9.158;2023-07-13T02:20:41;19.20;99.90
13433;DHT22;6789;47.678;9.158;2023-07-13T02:31:19;19.20;99.90
13433;DHT22;6789;47.678;9.158;2023-07-13T02:37:02;19.30;99.90
13433;DHT22;6789;47.678;9.158;2023-07-13T02:41:54;19.40;99.90
13433;DHT22;6789;47.678;9.158;2023-07-13T02:46:45;19.40;99.90
13433;DHT22;6789;47.678;9.158;2023-07-13T02:51:37;19.50;99.90
13433;DHT22;6789;47.678;9.158;2023-07-13T02:56:31;19.50;99.90
13433;DHT22;6789;47.678;9.158;2023-07-13T03:01:24;19.40;99.90
13433;DHT22;6789;47.678;9.158;2023-07-13T03:06:16;19.40;99.90
13433;DHT22;6789;47.678;9.158;2023-07-13T03:11:14;19.50;99.90
13433;DHT22;6789;47.678;9.158;2023-07-13T03:16:08;19.60;99.90
13433;DHT22;6789;47.678;9.158;2023-07-13T03:21:02;19.70;99.90
13433;DHT22;6789;47.678;9.158;2023-07-13T03:26:21;19.80;99.90
13433;DHT22;6789;47.678;9.158;2023-07-13T03:31:16;19.70;99.90
13433;DHT22;6789;47.678;9.158;2023-07-13T03:36:17;19.60;99.90
13433;DHT22;6789;47.678;9.158;2023-07-13T03:41:11;19.40;99.90
13433;DHT22;6789;47.678;9.158;2023-07-13T03:46:03;19.50;99.90
13433;DHT22;6789;47.678;9.158;2023-07-13T03:50:55;19.40;99.90
13433;DHT22;6789;47.678;9.158;2023-07-13T03:55:47;19.40;99.90
13433;DHT22;6789;47.678;9.158;2023-07-13T04:00:38;19.30;99.90
13433;DHT22;6789;47.678;9.158;2023-07-13T04:05:30;19.20;99.90
13433;DHT22;6789;47.678;9.158;2023-07-13T04:10:22;19.20;99.90
13433;DHT22;6789;47.678;9.158;2023-07-13T04:15:14;19.20;99.90
13433;DHT22;6789;47.678;9.158;2023-07-13T04:20:06;19.30;99.90
13433;DHT22;6789;47.678;9.158;2023-07-13T04:24:58;19.30;99.90
13433;DHT22;6789;47.678;9.158;2023-07-13T04:29:50;19.30;99.90
13433;DHT22;6789;47.678;9.158;2023-07-13T04:34:43;19.40;99.90
13433;DHT22;6789;47.678;9.158;2023-07-13T04:40:19;19.40;99.90
13433;DHT22;6789;47.678;9.158;2023-07-13T05:26:41;19.80;99.90
13433;DHT22;6789;47.678;9.158;2023-07-13T05:32:35;20.20;99.90
13433;DHT22;6789;47.678;9.158;2023-07-13T05:50:05;20.40;99.90
13433;DHT22;6789;47.678;9.158;2023-07-13T05:55:15;20.70;99.90
13433;DHT22;6789;47.678;9.158;2023-07-13T07:36:32;20.10;99.90
13433;DHT22;6789;47.678;9.158;2023-07-13T07:51:53;19.80;99.90
13433;DHT22;6789;47.678;9.158;2023-07-13T08:03:04;19.80;99.90
13433;DHT22;6789;47.678;9.158;2023-07-13T08:44:25;20.60;99.90
13433;DHT22;6789;47.678;9.158;2023-07-13T08:50:13;21.00;99.90
13433;DHT22;6789;47.678;9.158;2023-07-13T08:55:27;21.70;99.90
13433;DHT22;6789;47.678;9.158;2023-07-13T10:44:31;23.20;99.90
13433;DHT22;6789;47.678;9.158;2023-07-13T10:50:20;23.20;99.90
13433;DHT22;6789;47.678;9.158;2023-07-13T10:56:45;23.50;99.90
13433;DHT22;6789;47.678;9.158;2023-07-13T14:09:35;24.90;99.90
13433;DHT22;6789;47.678;9.158;2023-07-13T14:14:41;25.40;99.90
13433;DHT22;6789;47.678;9.158;2023-07-13T14:19:50;25.70;99.90
13433;DHT22;6789;47.678;9.158;2023-07-13T14:24:54;26.00;99.90
13433;DHT22;6789;47.678;9.158;2023-07-13T14:29:56;26.40;99.90
13433;DHT22;6789;47.678;9.158;2023-07-13T14:34:48;25.80;99.90
13433;DHT22;6789;47.678;9.158;2023-07-13T14:39:43;25.70;99.90
13433;DHT22;6789;47.678;9.158;2023-07-13T14:44:38;25.80;99.90
13433;DHT22;6789;47.678;9.158;2023-07-13T14:49:40;26.30;99.90
13433;DHT22;6789;47.678;9.158;2023-07-13T14:54:34;25.60;99.90
13433;DHT22;6789;47.678;9.158;2023-07-13T14:59:29;25.90;99.90
13433;DHT22;6789;47.678;9.158;2023-07-13T15:04:22;26.20;99.90
13433;DHT22;6789;47.678;9.158;2023-07-13T15:09:14;26.10;99.90
13433;DHT22;6789;47.678;9.158;2023-07-13T15:14:08;25.80;99.90
13433;DHT22;6789;47.678;9.158;2023-07-13T15:18:59;25.40;99.90
13433;DHT22;6789;47.678;9.158;2023-07-13T15:23:52;24.90;99.90
13433;DHT22;6789;47.678;9.158;2023-07-13T15:28:47;25.10;99.90
13433;DHT22;6789;47.678;9.158;2023-07-13T15:33:39;25.20;99.90
13433;DHT22;6789;47.678;9.158;2023-07-13T15:38:34;24.60;99.90
13433;DHT22;6789;47.678;9.158;2023-07-13T15:43:32;24.00;99.90
13433;DHT22;6789;47.678;9.158;2023-07-13T15:48:26;23.90;99.90
13433;DHT22;6789;47.678;9.158;2023-07-13T15:53:24;24.40;99.90
13433;DHT22;6789;47.678;9.158;2023-07-13T15:58:21;24.40;99.90
13433;DHT22;6789;47.678;9.158;2023-07-13T16:03:13;24.40;99.90
13433;DHT22;6789;47.678;9.158;2023-07-13T16:08:09;24.10;99.90
13433;DHT22;6789;47.678;9.158;2023-07-13T16:13:15;24.40;99.90
13433;DHT22;6789;47.678;9.158;2023-07-13T16:18:08;24.80;99.90
13433;DHT22;6789;47.678;9.158;2023-07-13T16:22:59;25.20;99.90
13433;DHT22;6789;47.678;9.158;2023-07-13T16:28:00;25.50;99.90
13433;DHT22;6789;47.678;9.158;2023-07-13T16:32:53;25.70;99.90
13433;DHT22;6789;47.678;9.158;2023-07-13T16:37:45;25.80;99.90
13433;DHT22;6789;47.678;9.158;2023-07-13T16:42:57;25.90;99.90
13433;DHT22;6789;47.678;9.158;2023-07-13T16:47:51;26.10;99.90
13433;DHT22;6789;47.678;9.158;2023-07-13T16:52:51;26.10;99.90
13433;DHT22;6789;47.678;9.158;2023-07-13T16:57:46;26.00;99.90
13433;DHT22;6789;47.678;9.158;2023-07-13T17:02:39;25.90;99.90
13433;DHT22;6789;47.678;9.158;2023-07-13T17:07:32;25.80;99.90
13433;DHT22;6789;47.678;9.158;2023-07-13T17:12:24;25.80;99.90
13433;DHT22;6789;47.678;9.158;2023-07-13T17:17:19;25.80;99.90
13433;DHT22;6789;47.678;9.158;2023-07-13T17:22:18;25.80;99.90
13433;DHT22;6789;47.678;9.158;2023-07-13T17:27:11;25.70;99.90
13433;DHT22;6789;47.678;9.158;2023-07-13T17:32:12;25.70;99.90
13433;DHT22;6789;47.678;9.158;2023-07-13T17:37:12;25.60;99.90
13433;DHT22;6789;47.678;9.158;2023-07-13T17:42:07;25.60;99.90
13433;DHT22;6789;47.678;9.158;2023-07-13T17:46:59;25.50;99.90
13433;DHT22;6789;47.678;9.158;2023-07-13T17:51:51;25.40;99.90
13433;DHT22;6789;47.678;9.158;2023-07-13T17:56:47;25.30;99.90
13433;DHT22;6789;47.678;9.158;2023-07-13T18:01:39;25.40;99.90
13433;DHT22;6789;47.678;9.158;2023-07-13T18:06:35;25.40;99.90
13433;DHT22;6789;47.678;9.158;2023-07-13T18:11:29;25.20;99.90
13433;DHT22;6789;47.678;9.158;2023-07-13T18:16:23;25.20;99.90
13433;DHT22;6789;47.678;9.158;2023-07-13T18:21:18;25.10;99.90
13433;DHT22;6789;47.678;9.158;2023-07-13T18:26:14;24.80;99.90
13433;DHT22;6789;47.678;9.158;2023-07-13T18:31:16;24.80;99.90
13433;DHT22;6789;47.678;9.158;2023-07-13T18:36:13;24.60;99.90
13433;DHT22;6789;47.678;9.158;2023-07-13T18:41:10;24.50;99.90
13433;DHT22;6789;47.678;9.158;2023-07-13T18:46:16;24.50;99.90
13433;DHT22;6789;47.678;9.158;2023-07-13T18:51:12;24.20;99.90
13433;DHT22;6789;47.678;9.158;2023-07-13T18:56:05;24.00;99.90
13433;DHT22;6789;47.678;9.158;2023-07-13T19:00:59;24.40;99.90
13433;DHT22;6789;47.678;9.158;2023-07-13T19:05:53;24.60;99.90
13433;DHT22;6789;47.678;9.158;2023-07-13T19:10:53;24.40;99.90
13433;DHT22;6789;47.678;9.158;2023-07-13T19:15:45;23.90;99.90
13433;DHT22;6789;47.678;9.158;2023-07-13T19:20:39;23.40;99.90
13433;DHT22;6789;47.678;9.158;2023-07-13T19:25:32;23.00;99.90
13433;DHT22;6789;47.678;9.158;2023-07-13T19:30:25;22.70;99.90
13433;DHT22;6789;47.678;9.158;2023-07-13T19:35:17;22.50;99.90
13433;DHT22;6789;47.678;9.158;2023-07-13T19:40:23;22.30;99.90
13433;DHT22;6789;47.678;9.158;2023-07-13T19:45:21;21.90;99.90
13433;DHT22;6789;47.678;9.158;2023-07-13T19:50:19;21.80;99.90
13433;DHT22;6789;47.678;9.158;2023-07-13T19:55:18;21.70;99.90
13433;DHT22;6789;47.678;9.158;2023-07-13T20:00:15;21.60;99.90
13433;DHT22;6789;47.678;9.158;2023-07-13T20:05:08;21.50;99.90
13433;DHT22;6789;47.678;9.158;2023-07-13T20:10:00;21.60;99.90
13433;DHT22;6789;47.678;9.158;2023-07-13T20:14:53;21.50;99.90
13433;DHT22;6789;47.678;9.158;2023-07-13T20:19:46;21.40;99.90
13433;DHT22;6789;47.678;9.158;2023-07-13T20:24:38;21.20;99.90
13433;DHT22;6789;47.678;9.158;2023-07-13T20:29:31;21.20;99.90
13433;DHT22;6789;47.678;9.158;2023-07-13T20:34:26;21.10;99.90
13433;DHT22;6789;47.678;9.158;2023-07-13T20:39:21;21.00;99.90
13433;DHT22;6789;47.678;9.158;2023-07-13T20:44:13;20.90;99.90
13433;DHT22;6789;47.678;9.158;2023-07-13T20:49:05;20.90;99.90
13433;DHT22;6789;47.678;9.158;2023-07-13T20:54:00;20.70;99.90
13433;DHT22;6789;47.678;9.158;2023-07-13T20:58:52;20.60;99.90
13433;DHT22;6789;47.678;9.158;2023-07-13T21:03:44;20.50;99.90
13433;DHT22;6789;47.678;9.158;2023-07-13T21:08:36;20.40;99.90
13433;DHT22;6789;47.678;9.158;2023-07-13T21:13:28;20.30;99.90
13433;DHT22;6789;47.678;9.158;2023-07-13T21:18:24;19.90;99.90
13433;DHT22;6789;47.678;9.158;2023-07-13T21:23:30;19.70;99.90
13433;DHT22;6789;47.678;9.158;2023-07-13T21:28:24;19.60;99.90
13433;DHT22;6789;47.678;9.158;2023-07-13T21:33:18;19.40;99.90
13433;DHT22;6789;47.678;9.158;2023-07-13T21:38:23;19.30;99.90
13433;DHT22;6789;47.678;9.158;2023-07-13T21:43:18;19.10;99.90
13433;DHT22;6789;47.678;9.158;2023-07-13T21:48:10;19.20;99.90
13433;DHT22;6789;47.678;9.158;2023-07-13T21:53:17;19.40;99.90
13433;DHT22;6789;47.678;9.158;2023-07-13T21:58:24;19.40;99.90
13433;DHT22;6789;47.678;9.158;2023-07-13T22:03:29;19.00;99.90
13433;DHT22;6789;47.678;9.158;2023-07-13T22:08:39;18.80;99.90
13433;DHT22;6789;47.678;9.158;2023-07-13T22:13:31;18.60;99.90
13433;DHT22;6789;47.678;9.158;2023-07-13T22:18:25;18.50;99.90
13433;DHT22;6789;47.678;9.158;2023-07-13T22:23:30;18.50;99.90
13433;DHT22;6789;47.678;9.158;2023-07-13T22:28:26;18.60;99.90
13433;DHT22;6789;47.678;9.158;2023-07-13T22:33:20;18.90;99.90
13433;DHT22;6789;47.678;9.158;2023-07-13T22:38:24;18.80;99.90
13433;DHT22;6789;47.678;9.158;2023-07-13T22:43:26;18.70;99.90
13433;DHT22;6789;47.678;9.158;2023-07-13T22:48:56;18.70;99.90
13433;DHT22;6789;47.678;9.158;2023-07-13T22:54:11;18.50;99.90
13433;DHT22;6789;47.678;9.158;2023-07-13T22:59:04;18.30;99.90
13433;DHT22;6789;47.678;9.158;2023-07-13T23:09:21;18.00;99.90
13433;DHT22;6789;47.678;9.158;2023-07-13T23:14:39;18.10;99.90
13433;DHT22;6789;47.678;9.158;2023-07-13T23:19:45;18.00;99.90
13433;DHT22;6789;47.678;9.158;2023-07-13T23:25:12;18.30;99.90
13433;DHT22;6789;47.678;9.158;2023-07-13T23:30:13;18.50;99.90
13433;DHT22;6789;47.678;9.158;2023-07-13T23:35:14;18.40;99.90
13433;DHT22;6789;47.678;9.158;2023-07-13T23:45:20;18.20;99.90
13433;DHT22;6789;47.678;9.158;2023-07-13T23:50:22;18.00;99.90
13433;DHT22;6789;47.678;9.158;2023-07-13T23:55:18;17.90;99.90
